sensor_id;sensor_type;location;lat;lon;timestamp;P1;durP1;ratioP1;P2;durP2;ratioP2
30613;SDS011;17381;51.690;5.270;2023-04-24T00:02:20;17.90;;;13.35;;
30613;SDS011;17381;51.690;5.270;2023-04-24T00:04:57;21.33;;;13.77;;
30613;SDS011;17381;51.690;5.270;2023-04-24T01:28:33;29.80;;;22.13;;
30613;SDS011;17381;51.690;5.270;2023-04-24T01:31:13;32.00;;;23.00;;
30613;SDS011;17381;51.690;5.270;2023-04-24T01:33:48;30.25;;;21.13;;
30613;SDS011;17381;51.690;5.270;2023-04-24T01:36:21;26.35;;;19.70;;
30613;SDS011;17381;51.690;5.270;2023-04-24T01:56:57;28.55;;;19.40;;
30613;SDS011;17381;51.690;5.270;2023-04-24T02:03:53;30.27;;;20.13;;
30613;SDS011;17381;51.690;5.270;2023-04-24T02:07:29;28.77;;;19.80;;
30613;SDS011;17381;51.690;5.270;2023-04-24T02:14:16;28.60;;;20.08;;
30613;SDS011;17381;51.690;5.270;2023-04-24T02:17:46;30.15;;;20.60;;
30613;SDS011;17381;51.690;5.270;2023-04-24T02:21:08;30.38;;;20.90;;
30613;SDS011;17381;51.690;5.270;2023-04-24T02:31:56;34.38;;;22.08;;
30613;SDS011;17381;51.690;5.270;2023-04-24T02:34:31;28.25;;;19.88;;
30613;SDS011;17381;51.690;5.270;2023-04-24T02:37:33;29.42;;;20.27;;
30613;SDS011;17381;51.690;5.270;2023-04-24T02:53:02;35.28;;;22.70;;
30613;SDS011;17381;51.690;5.270;2023-04-24T02:55:40;40.40;;;24.80;;
30613;SDS011;17381;51.690;5.270;2023-04-24T02:58:31;40.40;;;25.13;;
30613;SDS011;17381;51.690;5.270;2023-04-24T03:01:42;38.67;;;24.73;;
30613;SDS011;17381;51.690;5.270;2023-04-24T03:42:12;28.90;;;20.13;;
30613;SDS011;17381;51.690;5.270;2023-04-24T04:40:19;16.85;;;11.63;;
30613;SDS011;17381;51.690;5.270;2023-04-24T04:43:00;18.02;;;11.77;;
30613;SDS011;17381;51.690;5.270;2023-04-24T04:45:36;16.52;;;11.10;;
30613;SDS011;17381;51.690;5.270;2023-04-24T04:48:35;15.90;;;10.23;;
30613;SDS011;17381;51.690;5.270;2023-04-24T05:22:48;9.43;;;5.35;;
30613;SDS011;17381;51.690;5.270;2023-04-24T05:25:34;8.47;;;5.30;;
30613;SDS011;17381;51.690;5.270;2023-04-24T05:28:23;8.50;;;5.10;;
30613;SDS011;17381;51.690;5.270;2023-04-24T05:31:11;6.45;;;4.30;;
30613;SDS011;17381;51.690;5.270;2023-04-24T05:33:48;6.72;;;4.20;;
30613;SDS011;17381;51.690;5.270;2023-04-24T05:36:41;6.55;;;3.67;;
30613;SDS011;17381;51.690;5.270;2023-04-24T05:40:21;5.90;;;3.90;;
30613;SDS011;17381;51.690;5.270;2023-04-24T05:43:27;5.30;;;3.33;;
30613;SDS011;17381;51.690;5.270;2023-04-24T05:46:08;6.72;;;3.38;;
30613;SDS011;17381;51.690;5.270;2023-04-24T05:48:55;5.13;;;3.10;;
30613;SDS011;17381;51.690;5.270;2023-04-24T05:51:32;6.20;;;3.22;;
30613;SDS011;17381;51.690;5.270;2023-04-24T06:09:38;5.70;;;3.95;;
30613;SDS011;17381;51.690;5.270;2023-04-24T06:12:16;6.55;;;4.05;;
30613;SDS011;17381;51.690;5.270;2023-04-24T06:18:42;10.65;;;5.60;;
30613;SDS011;17381;51.690;5.270;2023-04-24T06:21:13;7.50;;;5.32;;
30613;SDS011;17381;51.690;5.270;2023-04-24T06:39:03;14.15;;;8.70;;
30613;SDS011;17381;51.690;5.270;2023-04-24T06:41:34;15.98;;;9.93;;
30613;SDS011;17381;51.690;5.270;2023-04-24T06:44:03;15.68;;;9.50;;
30613;SDS011;17381;51.690;5.270;2023-04-24T06:46:32;16.40;;;8.80;;
30613;SDS011;17381;51.690;5.270;2023-04-24T06:49:00;12.27;;;8.57;;
30613;SDS011;17381;51.690;5.270;2023-04-24T06:51:29;17.90;;;10.70;;
30613;SDS011;17381;51.690;5.270;2023-04-24T06:53:59;19.27;;;10.93;;
30613;SDS011;17381;51.690;5.270;2023-04-24T07:39:43;17.98;;;7.45;;
30613;SDS011;17381;51.690;5.270;2023-04-24T07:42:09;16.63;;;6.72;;
30613;SDS011;17381;51.690;5.270;2023-04-24T07:44:59;19.67;;;7.05;;
30613;SDS011;17381;51.690;5.270;2023-04-24T07:47:34;14.68;;;6.18;;
30613;SDS011;17381;51.690;5.270;2023-04-24T08:13:37;18.10;;;6.57;;
30613;SDS011;17381;51.690;5.270;2023-04-24T08:20:09;16.73;;;5.03;;
30613;SDS011;17381;51.690;5.270;2023-04-24T08:22:50;20.08;;;4.68;;
30613;SDS011;17381;51.690;5.270;2023-04-24T08:25:21;19.02;;;5.93;;
30613;SDS011;17381;51.690;5.270;2023-04-24T08:27:51;14.98;;;4.25;;
30613;SDS011;17381;51.690;5.270;2023-04-24T08:33:24;19.50;;;4.90;;
30613;SDS011;17381;51.690;5.270;2023-04-24T08:35:53;13.85;;;4.85;;
30613;SDS011;17381;51.690;5.270;2023-04-24T11:06:28;4.05;;;1.00;;
30613;SDS011;17381;51.690;5.270;2023-04-24T11:12:03;2.38;;;1.20;;
30613;SDS011;17381;51.690;5.270;2023-04-24T11:17:37;3.35;;;0.70;;
30613;SDS011;17381;51.690;5.270;2023-04-24T11:20:07;7.25;;;1.75;;
30613;SDS011;17381;51.690;5.270;2023-04-24T11:25:30;5.72;;;1.08;;
30613;SDS011;17381;51.690;5.270;2023-04-24T11:28:31;4.03;;;1.05;;
30613;SDS011;17381;51.690;5.270;2023-04-24T11:34:19;5.25;;;1.23;;
30613;SDS011;17381;51.690;5.270;2023-04-24T11:37:11;6.60;;;0.98;;
30613;SDS011;17381;51.690;5.270;2023-04-24T11:39:52;3.00;;;1.00;;
30613;SDS011;17381;51.690;5.270;2023-04-24T11:42:18;4.25;;;0.80;;
30613;SDS011;17381;51.690;5.270;2023-04-24T11:44:59;4.95;;;1.30;;
30613;SDS011;17381;51.690;5.270;2023-04-24T11:47:30;5.90;;;1.30;;
30613;SDS011;17381;51.690;5.270;2023-04-24T11:50:21;7.60;;;1.45;;
30613;SDS011;17381;51.690;5.270;2023-04-24T11:53:06;8.00;;;1.20;;
30613;SDS011;17381;51.690;5.270;2023-04-24T11:55:53;6.00;;;1.65;;
30613;SDS011;17381;51.690;5.270;2023-04-24T11:58:20;3.92;;;1.27;;
30613;SDS011;17381;51.690;5.270;2023-04-24T12:01:05;7.10;;;1.38;;
30613;SDS011;17381;51.690;5.270;2023-04-24T12:03:47;6.53;;;1.38;;
30613;SDS011;17381;51.690;5.270;2023-04-24T12:07:10;6.53;;;1.23;;
30613;SDS011;17381;51.690;5.270;2023-04-24T12:12:42;3.78;;;1.08;;
30613;SDS011;17381;51.690;5.270;2023-04-24T12:15:11;5.03;;;1.20;;
30613;SDS011;17381;51.690;5.270;2023-04-24T12:17:40;5.68;;;1.40;;
30613;SDS011;17381;51.690;5.270;2023-04-24T12:20:07;5.72;;;1.30;;
30613;SDS011;17381;51.690;5.270;2023-04-24T12:26:03;8.60;;;1.33;;
30613;SDS011;17381;51.690;5.270;2023-04-24T12:53:29;5.00;;;2.05;;
30613;SDS011;17381;51.690;5.270;2023-04-24T12:55:56;6.55;;;1.42;;
30613;SDS011;17381;51.690;5.270;2023-04-24T13:01:41;4.03;;;1.40;;
30613;SDS011;17381;51.690;5.270;2023-04-24T13:17:22;3.95;;;1.05;;
30613;SDS011;17381;51.690;5.270;2023-04-24T13:26:37;7.53;;;2.95;;
30613;SDS011;17381;51.690;5.270;2023-04-24T13:29:36;7.47;;;1.92;;
30613;SDS011;17381;51.690;5.270;2023-04-24T13:32:32;5.13;;;0.90;;
30613;SDS011;17381;51.690;5.270;2023-04-24T13:35:40;5.20;;;1.30;;
30613;SDS011;17381;51.690;5.270;2023-04-24T13:38:36;4.43;;;1.20;;
30613;SDS011;17381;51.690;5.270;2023-04-24T13:41:38;2.28;;;0.90;;
30613;SDS011;17381;51.690;5.270;2023-04-24T13:44:26;4.13;;;1.25;;
30613;SDS011;17381;51.690;5.270;2023-04-24T13:47:15;5.97;;;1.10;;
30613;SDS011;17381;51.690;5.270;2023-04-24T13:50:10;2.83;;;1.00;;
30613;SDS011;17381;51.690;5.270;2023-04-24T13:52:45;5.88;;;1.67;;
30613;SDS011;17381;51.690;5.270;2023-04-24T13:56:01;5.30;;;0.80;;
30613;SDS011;17381;51.690;5.270;2023-04-24T13:58:36;4.88;;;1.40;;
30613;SDS011;17381;51.690;5.270;2023-04-24T14:05:20;4.10;;;0.98;;
30613;SDS011;17381;51.690;5.270;2023-04-24T14:08:04;4.07;;;1.40;;
30613;SDS011;17381;51.690;5.270;2023-04-24T14:10:43;7.00;;;1.70;;
30613;SDS011;17381;51.690;5.270;2023-04-24T14:16:03;8.88;;;2.35;;
30613;SDS011;17381;51.690;5.270;2023-04-24T14:18:59;4.00;;;1.50;;
30613;SDS011;17381;51.690;5.270;2023-04-24T14:22:14;10.30;;;1.85;;
30613;SDS011;17381;51.690;5.270;2023-04-24T14:24:56;5.50;;;1.65;;
30613;SDS011;17381;51.690;5.270;2023-04-24T14:27:22;8.40;;;2.25;;
30613;SDS011;17381;51.690;5.270;2023-04-24T14:29:53;10.43;;;2.60;;
30613;SDS011;17381;51.690;5.270;2023-04-24T14:32:27;8.70;;;2.25;;
30613;SDS011;17381;51.690;5.270;2023-04-24T14:34:59;10.80;;;1.85;;
30613;SDS011;17381;51.690;5.270;2023-04-24T14:37:52;7.70;;;1.88;;
30613;SDS011;17381;51.690;5.270;2023-04-24T14:40:39;5.18;;;1.70;;
30613;SDS011;17381;51.690;5.270;2023-04-24T14:43:11;6.68;;;3.03;;
30613;SDS011;17381;51.690;5.270;2023-04-24T14:46:19;9.15;;;2.38;;
30613;SDS011;17381;51.690;5.270;2023-04-24T14:49:00;9.32;;;4.18;;
30613;SDS011;17381;51.690;5.270;2023-04-24T14:51:38;7.10;;;2.97;;
30613;SDS011;17381;51.690;5.270;2023-04-24T14:54:12;8.90;;;2.55;;
30613;SDS011;17381;51.690;5.270;2023-04-24T14:56:39;12.73;;;3.00;;
30613;SDS011;17381;51.690;5.270;2023-04-24T14:59:29;5.20;;;2.15;;
30613;SDS011;17381;51.690;5.270;2023-04-24T15:02:54;8.50;;;2.42;;
30613;SDS011;17381;51.690;5.270;2023-04-24T15:12:53;11.90;;;3.08;;
30613;SDS011;17381;51.690;5.270;2023-04-24T15:20:09;9.07;;;2.83;;
30613;SDS011;17381;51.690;5.270;2023-04-24T15:22:40;10.27;;;3.28;;
30613;SDS011;17381;51.690;5.270;2023-04-24T15:25:43;10.23;;;2.97;;
30613;SDS011;17381;51.690;5.270;2023-04-24T15:28:36;11.15;;;3.25;;
30613;SDS011;17381;51.690;5.270;2023-04-24T15:31:30;13.40;;;3.10;;
30613;SDS011;17381;51.690;5.270;2023-04-24T15:34:19;10.60;;;3.00;;
30613;SDS011;17381;51.690;5.270;2023-04-24T15:39:57;8.50;;;2.43;;
30613;SDS011;17381;51.690;5.270;2023-04-24T15:42:35;8.32;;;1.80;;
30613;SDS011;17381;51.690;5.270;2023-04-24T15:45:22;9.25;;;2.05;;
30613;SDS011;17381;51.690;5.270;2023-04-24T15:48:28;8.55;;;2.33;;
30613;SDS011;17381;51.690;5.270;2023-04-24T15:51:14;10.38;;;2.10;;
30613;SDS011;17381;51.690;5.270;2023-04-24T15:57:23;7.95;;;2.03;;
30613;SDS011;17381;51.690;5.270;2023-04-24T16:00:11;7.68;;;2.28;;
30613;SDS011;17381;51.690;5.270;2023-04-24T16:03:17;16.73;;;9.82;;
30613;SDS011;17381;51.690;5.270;2023-04-24T16:06:28;9.85;;;4.93;;
30613;SDS011;17381;51.690;5.270;2023-04-24T16:09:24;6.65;;;2.67;;
30613;SDS011;17381;51.690;5.270;2023-04-24T16:12:33;11.25;;;4.70;;
30613;SDS011;17381;51.690;5.270;2023-04-24T16:15:21;12.30;;;3.35;;
30613;SDS011;17381;51.690;5.270;2023-04-24T16:18:08;9.73;;;2.83;;
30613;SDS011;17381;51.690;5.270;2023-04-24T16:21:00;8.02;;;2.35;;
30613;SDS011;17381;51.690;5.270;2023-04-24T16:23:46;10.50;;;2.72;;
30613;SDS011;17381;51.690;5.270;2023-04-24T16:26:27;11.82;;;2.80;;
30613;SDS011;17381;51.690;5.270;2023-04-24T16:29:23;9.10;;;2.65;;
30613;SDS011;17381;51.690;5.270;2023-04-24T16:32:04;10.23;;;2.70;;
30613;SDS011;17381;51.690;5.270;2023-04-24T16:35:02;10.23;;;3.17;;
30613;SDS011;17381;51.690;5.270;2023-04-24T16:37:40;12.48;;;3.05;;
30613;SDS011;17381;51.690;5.270;2023-04-24T16:40:40;8.57;;;2.17;;
30613;SDS011;17381;51.690;5.270;2023-04-24T16:44:03;7.03;;;1.83;;
30613;SDS011;17381;51.690;5.270;2023-04-24T16:46:40;9.93;;;2.80;;
30613;SDS011;17381;51.690;5.270;2023-04-24T16:55:14;9.47;;;2.30;;
30613;SDS011;17381;51.690;5.270;2023-04-24T16:58:34;11.50;;;2.75;;
30613;SDS011;17381;51.690;5.270;2023-04-24T17:01:22;12.00;;;2.67;;
30613;SDS011;17381;51.690;5.270;2023-04-24T17:04:24;12.45;;;2.92;;
30613;SDS011;17381;51.690;5.270;2023-04-24T17:07:32;9.10;;;2.55;;
30613;SDS011;17381;51.690;5.270;2023-04-24T17:16:51;8.73;;;2.35;;
30613;SDS011;17381;51.690;5.270;2023-04-24T17:19:44;11.23;;;2.90;;
30613;SDS011;17381;51.690;5.270;2023-04-24T17:22:36;12.07;;;3.38;;
30613;SDS011;17381;51.690;5.270;2023-04-24T17:25:35;7.38;;;2.78;;
30613;SDS011;17381;51.690;5.270;2023-04-24T17:28:14;11.73;;;3.35;;
30613;SDS011;17381;51.690;5.270;2023-04-24T17:31:20;14.10;;;3.75;;
30613;SDS011;17381;51.690;5.270;2023-04-24T17:38:11;31.65;;;16.58;;
30613;SDS011;17381;51.690;5.270;2023-04-24T17:40:50;20.65;;;10.45;;
30613;SDS011;17381;51.690;5.270;2023-04-24T17:43:38;23.40;;;11.30;;
30613;SDS011;17381;51.690;5.270;2023-04-24T17:46:28;15.05;;;5.78;;
30613;SDS011;17381;51.690;5.270;2023-04-24T17:49:33;14.63;;;5.13;;
30613;SDS011;17381;51.690;5.270;2023-04-24T17:52:17;11.55;;;3.58;;
30613;SDS011;17381;51.690;5.270;2023-04-24T17:55:03;12.05;;;3.78;;
30613;SDS011;17381;51.690;5.270;2023-04-24T17:58:06;11.40;;;3.60;;
30613;SDS011;17381;51.690;5.270;2023-04-24T18:04:20;14.93;;;4.32;;
30613;SDS011;17381;51.690;5.270;2023-04-24T18:07:08;13.27;;;3.83;;
30613;SDS011;17381;51.690;5.270;2023-04-24T18:10:09;13.95;;;4.05;;
30613;SDS011;17381;51.690;5.270;2023-04-24T18:13:05;12.15;;;3.75;;
30613;SDS011;17381;51.690;5.270;2023-04-24T18:15:40;11.75;;;3.22;;
30613;SDS011;17381;51.690;5.270;2023-04-24T18:18:08;14.88;;;4.13;;
30613;SDS011;17381;51.690;5.270;2023-04-24T18:20:38;12.13;;;3.28;;
30613;SDS011;17381;51.690;5.270;2023-04-24T18:23:35;6.90;;;2.80;;
30613;SDS011;17381;51.690;5.270;2023-04-24T18:26:40;9.35;;;2.92;;
30613;SDS011;17381;51.690;5.270;2023-04-24T18:29:10;8.95;;;3.55;;
30613;SDS011;17381;51.690;5.270;2023-04-24T18:31:45;9.13;;;3.30;;
30613;SDS011;17381;51.690;5.270;2023-04-24T18:34:24;12.18;;;3.25;;
30613;SDS011;17381;51.690;5.270;2023-04-24T18:37:04;10.35;;;2.50;;
30613;SDS011;17381;51.690;5.270;2023-04-24T18:39:33;7.10;;;2.55;;
30613;SDS011;17381;51.690;5.270;2023-04-24T18:42:27;9.65;;;2.95;;
30613;SDS011;17381;51.690;5.270;2023-04-24T18:45:11;14.63;;;3.78;;
30613;SDS011;17381;51.690;5.270;2023-04-24T18:47:47;9.40;;;2.88;;
30613;SDS011;17381;51.690;5.270;2023-04-24T18:58:31;10.70;;;2.95;;
30613;SDS011;17381;51.690;5.270;2023-04-24T19:08:32;11.98;;;2.92;;
30613;SDS011;17381;51.690;5.270;2023-04-24T19:11:11;13.00;;;3.15;;
30613;SDS011;17381;51.690;5.270;2023-04-24T19:13:48;12.48;;;6.97;;
30613;SDS011;17381;51.690;5.270;2023-04-24T19:16:38;18.38;;;8.35;;
30613;SDS011;17381;51.690;5.270;2023-04-24T19:19:07;11.65;;;4.55;;
30613;SDS011;17381;51.690;5.270;2023-04-24T19:22:10;16.77;;;4.80;;
30613;SDS011;17381;51.690;5.270;2023-04-24T19:25:07;11.30;;;3.80;;
30613;SDS011;17381;51.690;5.270;2023-04-24T19:27:44;10.82;;;3.97;;
30613;SDS011;17381;51.690;5.270;2023-04-24T19:30:47;12.85;;;4.50;;
30613;SDS011;17381;51.690;5.270;2023-04-24T19:33:56;12.93;;;3.88;;
30613;SDS011;17381;51.690;5.270;2023-04-24T19:36:58;15.80;;;5.00;;
30613;SDS011;17381;51.690;5.270;2023-04-24T19:39:27;10.90;;;3.67;;
30613;SDS011;17381;51.690;5.270;2023-04-24T19:41:58;14.98;;;4.35;;
30613;SDS011;17381;51.690;5.270;2023-04-24T19:44:32;20.08;;;8.88;;
30613;SDS011;17381;51.690;5.270;2023-04-24T19:47:06;16.33;;;7.80;;
30613;SDS011;17381;51.690;5.270;2023-04-24T19:49:53;22.30;;;9.15;;
30613;SDS011;17381;51.690;5.270;2023-04-24T19:52:41;17.77;;;5.47;;
30613;SDS011;17381;51.690;5.270;2023-04-24T19:58:36;12.30;;;4.88;;
30613;SDS011;17381;51.690;5.270;2023-04-24T20:01:34;18.00;;;4.45;;
30613;SDS011;17381;51.690;5.270;2023-04-24T20:04:18;14.98;;;4.53;;
30613;SDS011;17381;51.690;5.270;2023-04-24T20:07:31;9.65;;;3.50;;
30613;SDS011;17381;51.690;5.270;2023-04-24T20:10:33;12.45;;;4.22;;
30613;SDS011;17381;51.690;5.270;2023-04-24T20:13:13;19.55;;;5.95;;
30613;SDS011;17381;51.690;5.270;2023-04-24T20:15:57;12.75;;;3.47;;
30613;SDS011;17381;51.690;5.270;2023-04-24T20:18:42;9.02;;;3.35;;
30613;SDS011;17381;51.690;5.270;2023-04-24T20:21:44;13.32;;;4.22;;
30613;SDS011;17381;51.690;5.270;2023-04-24T20:24:39;10.32;;;3.97;;
30613;SDS011;17381;51.690;5.270;2023-04-24T20:27:32;11.15;;;5.35;;
30613;SDS011;17381;51.690;5.270;2023-04-24T20:30:16;15.07;;;5.45;;
30613;SDS011;17381;51.690;5.270;2023-04-24T20:33:18;8.90;;;3.47;;
30613;SDS011;17381;51.690;5.270;2023-04-24T20:38:45;9.95;;;3.35;;
30613;SDS011;17381;51.690;5.270;2023-04-24T20:42:05;8.20;;;2.70;;
30613;SDS011;17381;51.690;5.270;2023-04-24T20:44:52;6.97;;;2.08;;
30613;SDS011;17381;51.690;5.270;2023-04-24T20:47:54;6.47;;;2.50;;
30613;SDS011;17381;51.690;5.270;2023-04-24T20:51:00;12.70;;;2.97;;
30613;SDS011;17381;51.690;5.270;2023-04-24T20:54:04;6.25;;;2.33;;
30613;SDS011;17381;51.690;5.270;2023-04-24T20:59:50;15.40;;;3.03;;
30613;SDS011;17381;51.690;5.270;2023-04-24T21:02:21;5.80;;;2.00;;
30613;SDS011;17381;51.690;5.270;2023-04-24T21:04:55;10.77;;;2.42;;
30613;SDS011;17381;51.690;5.270;2023-04-24T21:07:43;9.40;;;2.33;;
30613;SDS011;17381;51.690;5.270;2023-04-24T21:13:31;8.05;;;2.10;;
30613;SDS011;17381;51.690;5.270;2023-04-24T21:16:22;11.50;;;2.00;;
30613;SDS011;17381;51.690;5.270;2023-04-24T21:19:10;6.65;;;1.95;;
30613;SDS011;17381;51.690;5.270;2023-04-24T21:21:36;7.22;;;2.28;;
30613;SDS011;17381;51.690;5.270;2023-04-24T21:24:08;7.93;;;2.30;;
30613;SDS011;17381;51.690;5.270;2023-04-24T21:29:52;8.50;;;2.55;;
30613;SDS011;17381;51.690;5.270;2023-04-24T21:32:48;6.05;;;2.20;;
30613;SDS011;17381;51.690;5.270;2023-04-24T21:35:45;7.97;;;2.35;;
30613;SDS011;17381;51.690;5.270;2023-04-24T21:38:44;5.15;;;1.63;;
30613;SDS011;17381;51.690;5.270;2023-04-24T21:41:31;9.18;;;2.28;;
30613;SDS011;17381;51.690;5.270;2023-04-24T21:44:06;6.72;;;2.22;;
30613;SDS011;17381;51.690;5.270;2023-04-24T21:46:54;6.25;;;2.20;;
30613;SDS011;17381;51.690;5.270;2023-04-24T21:49:34;5.05;;;1.80;;
30613;SDS011;17381;51.690;5.270;2023-04-24T21:52:09;12.45;;;2.88;;
30613;SDS011;17381;51.690;5.270;2023-04-24T21:54:52;5.90;;;2.67;;
30613;SDS011;17381;51.690;5.270;2023-04-24T21:57:22;6.72;;;2.22;;
30613;SDS011;17381;51.690;5.270;2023-04-24T22:00:09;5.22;;;2.17;;
30613;SDS011;17381;51.690;5.270;2023-04-24T22:02:55;7.03;;;2.35;;
30613;SDS011;17381;51.690;5.270;2023-04-24T22:08:37;6.70;;;2.00;;
30613;SDS011;17381;51.690;5.270;2023-04-24T22:11:23;7.00;;;2.20;;
30613;SDS011;17381;51.690;5.270;2023-04-24T22:14:05;7.60;;;2.30;;
30613;SDS011;17381;51.690;5.270;2023-04-24T22:16:51;7.10;;;2.25;;
30613;SDS011;17381;51.690;5.270;2023-04-24T22:19:24;8.27;;;2.40;;
30613;SDS011;17381;51.690;5.270;2023-04-24T22:22:04;10.25;;;3.15;;
30613;SDS011;17381;51.690;5.270;2023-04-24T22:24:36;6.45;;;2.13;;
30613;SDS011;17381;51.690;5.270;2023-04-24T22:27:08;7.53;;;2.03;;
30613;SDS011;17381;51.690;5.270;2023-04-24T22:29:45;5.20;;;1.98;;
30613;SDS011;17381;51.690;5.270;2023-04-24T22:32:46;7.72;;;2.38;;
30613;SDS011;17381;51.690;5.270;2023-04-24T22:35:54;5.70;;;2.10;;
30613;SDS011;17381;51.690;5.270;2023-04-24T22:38:50;6.80;;;2.42;;
30613;SDS011;17381;51.690;5.270;2023-04-24T22:45:30;8.93;;;2.67;;
30613;SDS011;17381;51.690;5.270;2023-04-24T22:53:14;7.80;;;2.40;;
30613;SDS011;17381;51.690;5.270;2023-04-24T22:56:21;7.70;;;2.58;;
30613;SDS011;17381;51.690;5.270;2023-04-24T23:02:15;13.43;;;4.78;;
30613;SDS011;17381;51.690;5.270;2023-04-24T23:48:08;10.15;;;2.88;;
